sensor_id;sensor_type;location;lat;lon;timestamp;P1;durP1;ratioP1;P2;durP2;ratioP2
46230;SDS011;31949;51.404;-0.038;2023-06-10T00:02:06;14.70;;;9.30;;
46230;SDS011;31949;51.404;-0.038;2023-06-10T00:04:34;18.48;;;10.07;;
46230;SDS011;31949;51.404;-0.038;2023-06-10T00:07:03;12.30;;;9.32;;
46230;SDS011;31949;51.404;-0.038;2023-06-10T00:12:07;14.75;;;9.32;;
46230;SDS011;31949;51.404;-0.038;2023-06-10T00:14:39;17.88;;;10.13;;
46230;SDS011;31949;51.404;-0.038;2023-06-10T00:17:09;19.23;;;9.57;;
46230;SDS011;31949;51.404;-0.038;2023-06-10T00:19:37;17.33;;;10.15;;
46230;SDS011;31949;51.404;-0.038;2023-06-10T00:22:08;14.90;;;9.57;;
46230;SDS011;31949;51.404;-0.038;2023-06-10T00:24:38;19.50;;;9.80;;
46230;SDS011;31949;51.404;-0.038;2023-06-10T00:27:06;23.38;;;9.93;;
46230;SDS011;31949;51.404;-0.038;2023-06-10T00:29:34;13.40;;;8.57;;
46230;SDS011;31949;51.404;-0.038;2023-06-10T00:32:01;16.60;;;9.50;;
46230;SDS011;31949;51.404;-0.038;2023-06-10T00:34:29;17.88;;;10.07;;
46230;SDS011;31949;51.404;-0.038;2023-06-10T00:36:57;19.92;;;9.15;;
46230;SDS011;31949;51.404;-0.038;2023-06-10T00:39:24;19.95;;;9.32;;
46230;SDS011;31949;51.404;-0.038;2023-06-10T00:41:52;16.52;;;9.20;;
46230;SDS011;31949;51.404;-0.038;2023-06-10T00:44:19;14.73;;;8.00;;
46230;SDS011;31949;51.404;-0.038;2023-06-10T00:46:46;18.35;;;10.13;;
46230;SDS011;31949;51.404;-0.038;2023-06-10T00:49:14;24.63;;;9.77;;
46230;SDS011;31949;51.404;-0.038;2023-06-10T00:51:43;18.42;;;9.32;;
46230;SDS011;31949;51.404;-0.038;2023-06-10T00:54:10;14.77;;;7.68;;
46230;SDS011;31949;51.404;-0.038;2023-06-10T00:56:40;22.42;;;8.68;;
46230;SDS011;31949;51.404;-0.038;2023-06-10T00:59:09;21.30;;;9.65;;
46230;SDS011;31949;51.404;-0.038;2023-06-10T01:01:37;20.98;;;9.05;;
46230;SDS011;31949;51.404;-0.038;2023-06-10T01:04:06;20.52;;;9.02;;
46230;SDS011;31949;51.404;-0.038;2023-06-10T01:06:43;21.60;;;11.50;;
46230;SDS011;31949;51.404;-0.038;2023-06-10T01:12:26;18.98;;;9.43;;
46230;SDS011;31949;51.404;-0.038;2023-06-10T01:15:08;14.52;;;8.10;;
46230;SDS011;31949;51.404;-0.038;2023-06-10T01:20:42;21.52;;;9.70;;
46230;SDS011;31949;51.404;-0.038;2023-06-10T01:23:10;14.98;;;8.93;;
46230;SDS011;31949;51.404;-0.038;2023-06-10T01:25:38;16.38;;;8.95;;
46230;SDS011;31949;51.404;-0.038;2023-06-10T01:28:18;11.80;;;7.55;;
46230;SDS011;31949;51.404;-0.038;2023-06-10T01:33:36;15.32;;;8.85;;
46230;SDS011;31949;51.404;-0.038;2023-06-10T01:36:08;15.07;;;8.15;;
46230;SDS011;31949;51.404;-0.038;2023-06-10T01:38:36;22.30;;;9.90;;
46230;SDS011;31949;51.404;-0.038;2023-06-10T01:41:08;16.15;;;7.88;;
46230;SDS011;31949;51.404;-0.038;2023-06-10T01:43:37;13.73;;;7.32;;
46230;SDS011;31949;51.404;-0.038;2023-06-10T01:46:06;19.42;;;8.55;;
46230;SDS011;31949;51.404;-0.038;2023-06-10T01:48:33;16.85;;;8.35;;
46230;SDS011;31949;51.404;-0.038;2023-06-10T01:51:01;23.35;;;8.90;;
46230;SDS011;31949;51.404;-0.038;2023-06-10T01:53:28;16.27;;;7.78;;
46230;SDS011;31949;51.404;-0.038;2023-06-10T01:55:56;17.42;;;7.97;;
46230;SDS011;31949;51.404;-0.038;2023-06-10T01:58:23;15.68;;;8.23;;
46230;SDS011;31949;51.404;-0.038;2023-06-10T02:00:50;17.02;;;8.52;;
46230;SDS011;31949;51.404;-0.038;2023-06-10T02:03:17;16.00;;;7.38;;
46230;SDS011;31949;51.404;-0.038;2023-06-10T02:05:45;16.08;;;7.95;;
46230;SDS011;31949;51.404;-0.038;2023-06-10T02:08:15;15.45;;;7.22;;
46230;SDS011;31949;51.404;-0.038;2023-06-10T02:10:42;15.48;;;8.13;;
46230;SDS011;31949;51.404;-0.038;2023-06-10T02:13:10;14.52;;;7.30;;
46230;SDS011;31949;51.404;-0.038;2023-06-10T02:15:37;18.38;;;8.57;;
46230;SDS011;31949;51.404;-0.038;2023-06-10T02:18:04;13.88;;;7.57;;
46230;SDS011;31949;51.404;-0.038;2023-06-10T02:20:32;15.27;;;8.00;;
46230;SDS011;31949;51.404;-0.038;2023-06-10T02:23:01;13.93;;;7.72;;
46230;SDS011;31949;51.404;-0.038;2023-06-10T02:25:28;9.55;;;6.78;;
46230;SDS011;31949;51.404;-0.038;2023-06-10T02:27:56;15.82;;;6.50;;
46230;SDS011;31949;51.404;-0.038;2023-06-10T02:30:24;14.98;;;7.63;;
46230;SDS011;31949;51.404;-0.038;2023-06-10T02:32:51;19.60;;;8.07;;
46230;SDS011;31949;51.404;-0.038;2023-06-10T02:35:19;15.23;;;7.95;;
46230;SDS011;31949;51.404;-0.038;2023-06-10T02:37:47;15.68;;;7.57;;
46230;SDS011;31949;51.404;-0.038;2023-06-10T02:40:14;15.50;;;7.95;;
46230;SDS011;31949;51.404;-0.038;2023-06-10T02:42:41;18.63;;;7.90;;
46230;SDS011;31949;51.404;-0.038;2023-06-10T02:45:08;13.00;;;7.85;;
46230;SDS011;31949;51.404;-0.038;2023-06-10T02:47:40;17.58;;;8.52;;
46230;SDS011;31949;51.404;-0.038;2023-06-10T02:50:09;16.50;;;8.13;;
46230;SDS011;31949;51.404;-0.038;2023-06-10T02:52:46;14.35;;;7.70;;
46230;SDS011;31949;51.404;-0.038;2023-06-10T02:55:13;17.92;;;9.48;;
46230;SDS011;31949;51.404;-0.038;2023-06-10T02:57:45;15.23;;;7.25;;
46230;SDS011;31949;51.404;-0.038;2023-06-10T03:00:13;16.27;;;9.00;;
46230;SDS011;31949;51.404;-0.038;2023-06-10T03:02:42;15.05;;;8.93;;
46230;SDS011;31949;51.404;-0.038;2023-06-10T03:05:13;17.70;;;8.57;;
46230;SDS011;31949;51.404;-0.038;2023-06-10T03:07:45;19.35;;;9.52;;
46230;SDS011;31949;51.404;-0.038;2023-06-10T03:10:14;17.90;;;9.15;;
46230;SDS011;31949;51.404;-0.038;2023-06-10T03:12:42;14.68;;;8.65;;
46230;SDS011;31949;51.404;-0.038;2023-06-10T03:15:10;19.63;;;9.23;;
46230;SDS011;31949;51.404;-0.038;2023-06-10T03:17:39;16.20;;;8.85;;
46230;SDS011;31949;51.404;-0.038;2023-06-10T03:20:07;12.43;;;8.18;;
46230;SDS011;31949;51.404;-0.038;2023-06-10T03:22:39;19.90;;;9.27;;
46230;SDS011;31949;51.404;-0.038;2023-06-10T03:25:08;12.52;;;8.43;;
46230;SDS011;31949;51.404;-0.038;2023-06-10T03:27:43;18.33;;;8.13;;
46230;SDS011;31949;51.404;-0.038;2023-06-10T03:30:12;16.13;;;7.50;;
46230;SDS011;31949;51.404;-0.038;2023-06-10T03:32:41;14.02;;;7.05;;
46230;SDS011;31949;51.404;-0.038;2023-06-10T03:35:11;16.35;;;8.13;;
46230;SDS011;31949;51.404;-0.038;2023-06-10T03:37:39;15.73;;;7.78;;
46230;SDS011;31949;51.404;-0.038;2023-06-10T03:40:07;13.95;;;7.57;;
46230;SDS011;31949;51.404;-0.038;2023-06-10T03:42:37;13.60;;;7.43;;
46230;SDS011;31949;51.404;-0.038;2023-06-10T03:45:05;16.52;;;8.18;;
46230;SDS011;31949;51.404;-0.038;2023-06-10T03:47:35;17.02;;;8.13;;
46230;SDS011;31949;51.404;-0.038;2023-06-10T03:50:07;15.48;;;8.48;;
46230;SDS011;31949;51.404;-0.038;2023-06-10T03:52:35;20.90;;;9.60;;
46230;SDS011;31949;51.404;-0.038;2023-06-10T03:55:05;15.65;;;8.35;;
46230;SDS011;31949;51.404;-0.038;2023-06-10T03:57:34;18.38;;;8.65;;
46230;SDS011;31949;51.404;-0.038;2023-06-10T04:00:01;13.27;;;7.97;;
46230;SDS011;31949;51.404;-0.038;2023-06-10T04:02:40;15.88;;;8.15;;
46230;SDS011;31949;51.404;-0.038;2023-06-10T04:05:28;14.70;;;7.53;;
46230;SDS011;31949;51.404;-0.038;2023-06-10T04:07:57;20.58;;;10.13;;
46230;SDS011;31949;51.404;-0.038;2023-06-10T04:10:24;11.57;;;7.57;;
46230;SDS011;31949;51.404;-0.038;2023-06-10T04:12:53;13.18;;;7.22;;
46230;SDS011;31949;51.404;-0.038;2023-06-10T04:15:22;13.75;;;8.18;;
46230;SDS011;31949;51.404;-0.038;2023-06-10T04:17:50;11.52;;;8.18;;
46230;SDS011;31949;51.404;-0.038;2023-06-10T04:20:20;17.90;;;8.18;;
46230;SDS011;31949;51.404;-0.038;2023-06-10T04:22:48;18.52;;;8.45;;
46230;SDS011;31949;51.404;-0.038;2023-06-10T04:25:15;16.60;;;8.10;;
46230;SDS011;31949;51.404;-0.038;2023-06-10T04:27:43;17.75;;;9.70;;
46230;SDS011;31949;51.404;-0.038;2023-06-10T04:30:11;17.77;;;8.32;;
46230;SDS011;31949;51.404;-0.038;2023-06-10T04:32:39;14.30;;;8.07;;
46230;SDS011;31949;51.404;-0.038;2023-06-10T04:35:12;15.95;;;8.20;;
46230;SDS011;31949;51.404;-0.038;2023-06-10T04:37:41;16.67;;;9.35;;
46230;SDS011;31949;51.404;-0.038;2023-06-10T04:40:10;12.50;;;7.80;;
46230;SDS011;31949;51.404;-0.038;2023-06-10T04:42:37;22.27;;;9.23;;
46230;SDS011;31949;51.404;-0.038;2023-06-10T04:45:05;14.88;;;7.07;;
46230;SDS011;31949;51.404;-0.038;2023-06-10T04:47:34;15.32;;;8.13;;
46230;SDS011;31949;51.404;-0.038;2023-06-10T04:50:02;20.30;;;9.23;;
46230;SDS011;31949;51.404;-0.038;2023-06-10T04:52:30;15.48;;;8.07;;
46230;SDS011;31949;51.404;-0.038;2023-06-10T04:54:58;12.65;;;8.05;;
46230;SDS011;31949;51.404;-0.038;2023-06-10T04:57:25;20.25;;;9.82;;
46230;SDS011;31949;51.404;-0.038;2023-06-10T04:59:52;18.92;;;10.18;;
46230;SDS011;31949;51.404;-0.038;2023-06-10T05:02:20;12.65;;;7.75;;
46230;SDS011;31949;51.404;-0.038;2023-06-10T05:04:47;14.70;;;7.80;;
46230;SDS011;31949;51.404;-0.038;2023-06-10T05:07:14;15.50;;;8.65;;
46230;SDS011;31949;51.404;-0.038;2023-06-10T05:09:42;11.18;;;6.72;;
46230;SDS011;31949;51.404;-0.038;2023-06-10T05:12:09;12.25;;;8.13;;
46230;SDS011;31949;51.404;-0.038;2023-06-10T05:14:36;16.17;;;7.82;;
46230;SDS011;31949;51.404;-0.038;2023-06-10T05:17:03;17.38;;;7.95;;
46230;SDS011;31949;51.404;-0.038;2023-06-10T05:19:32;17.70;;;7.63;;
46230;SDS011;31949;51.404;-0.038;2023-06-10T05:21:59;24.63;;;10.10;;
46230;SDS011;31949;51.404;-0.038;2023-06-10T05:24:27;17.35;;;8.65;;
46230;SDS011;31949;51.404;-0.038;2023-06-10T05:26:55;18.27;;;9.93;;
46230;SDS011;31949;51.404;-0.038;2023-06-10T05:29:22;14.90;;;8.15;;
46230;SDS011;31949;51.404;-0.038;2023-06-10T05:31:49;15.30;;;7.43;;
46230;SDS011;31949;51.404;-0.038;2023-06-10T05:34:16;13.60;;;7.82;;
46230;SDS011;31949;51.404;-0.038;2023-06-10T05:36:44;16.75;;;8.80;;
46230;SDS011;31949;51.404;-0.038;2023-06-10T05:39:11;19.55;;;10.55;;
46230;SDS011;31949;51.404;-0.038;2023-06-10T05:41:39;19.30;;;10.23;;
46230;SDS011;31949;51.404;-0.038;2023-06-10T05:44:06;25.80;;;9.30;;
46230;SDS011;31949;51.404;-0.038;2023-06-10T05:46:33;18.65;;;9.18;;
46230;SDS011;31949;51.404;-0.038;2023-06-10T05:49:01;17.95;;;10.00;;
46230;SDS011;31949;51.404;-0.038;2023-06-10T05:51:28;20.27;;;9.60;;
46230;SDS011;31949;51.404;-0.038;2023-06-10T05:53:55;15.38;;;8.68;;
46230;SDS011;31949;51.404;-0.038;2023-06-10T05:56:22;16.67;;;10.35;;
46230;SDS011;31949;51.404;-0.038;2023-06-10T05:58:50;21.50;;;10.68;;
46230;SDS011;31949;51.404;-0.038;2023-06-10T06:01:18;15.88;;;8.15;;
46230;SDS011;31949;51.404;-0.038;2023-06-10T06:03:45;23.33;;;11.15;;
46230;SDS011;31949;51.404;-0.038;2023-06-10T06:06:12;13.70;;;8.70;;
46230;SDS011;31949;51.404;-0.038;2023-06-10T06:08:40;14.75;;;8.07;;
46230;SDS011;31949;51.404;-0.038;2023-06-10T06:11:07;15.43;;;8.50;;
46230;SDS011;31949;51.404;-0.038;2023-06-10T06:13:34;14.65;;;8.18;;
46230;SDS011;31949;51.404;-0.038;2023-06-10T06:16:01;21.55;;;10.18;;
46230;SDS011;31949;51.404;-0.038;2023-06-10T06:18:28;12.77;;;7.25;;
46230;SDS011;31949;51.404;-0.038;2023-06-10T06:20:56;14.52;;;9.13;;
46230;SDS011;31949;51.404;-0.038;2023-06-10T06:23:23;12.43;;;8.55;;
46230;SDS011;31949;51.404;-0.038;2023-06-10T06:25:50;16.98;;;9.93;;
46230;SDS011;31949;51.404;-0.038;2023-06-10T06:28:17;17.17;;;8.63;;
46230;SDS011;31949;51.404;-0.038;2023-06-10T06:30:47;21.83;;;9.18;;
46230;SDS011;31949;51.404;-0.038;2023-06-10T06:33:14;15.98;;;8.98;;
46230;SDS011;31949;51.404;-0.038;2023-06-10T06:35:42;19.60;;;9.27;;
46230;SDS011;31949;51.404;-0.038;2023-06-10T06:38:09;16.13;;;9.70;;
46230;SDS011;31949;51.404;-0.038;2023-06-10T06:40:36;22.65;;;10.40;;
46230;SDS011;31949;51.404;-0.038;2023-06-10T06:43:03;12.98;;;7.45;;
46230;SDS011;31949;51.404;-0.038;2023-06-10T06:45:36;15.60;;;8.35;;
46230;SDS011;31949;51.404;-0.038;2023-06-10T06:48:04;14.15;;;8.43;;
46230;SDS011;31949;51.404;-0.038;2023-06-10T06:50:32;22.00;;;11.18;;
46230;SDS011;31949;51.404;-0.038;2023-06-10T06:52:59;16.60;;;8.68;;
46230;SDS011;31949;51.404;-0.038;2023-06-10T06:55:27;19.52;;;8.82;;
46230;SDS011;31949;51.404;-0.038;2023-06-10T06:57:54;17.15;;;9.38;;
46230;SDS011;31949;51.404;-0.038;2023-06-10T07:00:22;14.63;;;8.40;;
46230;SDS011;31949;51.404;-0.038;2023-06-10T07:02:49;15.68;;;9.30;;
46230;SDS011;31949;51.404;-0.038;2023-06-10T07:05:16;11.55;;;8.05;;
46230;SDS011;31949;51.404;-0.038;2023-06-10T07:07:44;14.35;;;8.35;;
46230;SDS011;31949;51.404;-0.038;2023-06-10T07:10:11;16.48;;;9.57;;
46230;SDS011;31949;51.404;-0.038;2023-06-10T07:12:38;17.70;;;10.02;;
46230;SDS011;31949;51.404;-0.038;2023-06-10T07:15:06;15.65;;;8.80;;
46230;SDS011;31949;51.404;-0.038;2023-06-10T07:17:34;17.13;;;8.63;;
46230;SDS011;31949;51.404;-0.038;2023-06-10T07:20:01;16.25;;;10.20;;
46230;SDS011;31949;51.404;-0.038;2023-06-10T07:22:29;16.08;;;8.57;;
46230;SDS011;31949;51.404;-0.038;2023-06-10T07:24:56;15.27;;;8.63;;
46230;SDS011;31949;51.404;-0.038;2023-06-10T07:27:24;17.05;;;10.32;;
46230;SDS011;31949;51.404;-0.038;2023-06-10T07:29:51;14.27;;;9.30;;
46230;SDS011;31949;51.404;-0.038;2023-06-10T07:32:19;15.38;;;9.70;;
46230;SDS011;31949;51.404;-0.038;2023-06-10T07:34:50;16.73;;;10.43;;
46230;SDS011;31949;51.404;-0.038;2023-06-10T07:37:17;14.45;;;9.93;;
46230;SDS011;31949;51.404;-0.038;2023-06-10T07:39:46;12.57;;;9.43;;
46230;SDS011;31949;51.404;-0.038;2023-06-10T07:42:13;13.27;;;7.72;;
46230;SDS011;31949;51.404;-0.038;2023-06-10T07:44:40;13.98;;;9.13;;
46230;SDS011;31949;51.404;-0.038;2023-06-10T07:47:08;14.60;;;9.57;;
46230;SDS011;31949;51.404;-0.038;2023-06-10T07:49:35;12.65;;;7.75;;
46230;SDS011;31949;51.404;-0.038;2023-06-10T07:52:02;12.90;;;8.73;;
46230;SDS011;31949;51.404;-0.038;2023-06-10T07:54:29;14.45;;;8.70;;
46230;SDS011;31949;51.404;-0.038;2023-06-10T07:56:57;14.38;;;10.70;;
46230;SDS011;31949;51.404;-0.038;2023-06-10T07:59:24;17.65;;;9.52;;
46230;SDS011;31949;51.404;-0.038;2023-06-10T08:01:53;20.55;;;10.55;;
46230;SDS011;31949;51.404;-0.038;2023-06-10T08:04:20;16.05;;;10.02;;
46230;SDS011;31949;51.404;-0.038;2023-06-10T08:06:47;18.40;;;10.68;;
46230;SDS011;31949;51.404;-0.038;2023-06-10T08:09:15;18.75;;;11.05;;
46230;SDS011;31949;51.404;-0.038;2023-06-10T08:11:42;17.92;;;10.07;;
46230;SDS011;31949;51.404;-0.038;2023-06-10T08:14:10;17.77;;;11.88;;
46230;SDS011;31949;51.404;-0.038;2023-06-10T08:16:37;15.23;;;10.38;;
46230;SDS011;31949;51.404;-0.038;2023-06-10T08:19:04;16.55;;;10.55;;
46230;SDS011;31949;51.404;-0.038;2023-06-10T08:21:31;17.85;;;9.52;;
46230;SDS011;31949;51.404;-0.038;2023-06-10T08:24:00;16.00;;;10.68;;
46230;SDS011;31949;51.404;-0.038;2023-06-10T08:26:27;15.70;;;9.85;;
46230;SDS011;31949;51.404;-0.038;2023-06-10T08:28:54;18.63;;;11.15;;
46230;SDS011;31949;51.404;-0.038;2023-06-10T08:31:22;12.63;;;9.50;;
46230;SDS011;31949;51.404;-0.038;2023-06-10T08:33:50;15.75;;;10.20;;
46230;SDS011;31949;51.404;-0.038;2023-06-10T08:36:17;15.45;;;10.68;;
46230;SDS011;31949;51.404;-0.038;2023-06-10T08:38:44;19.67;;;10.65;;
46230;SDS011;31949;51.404;-0.038;2023-06-10T08:41:12;18.67;;;10.40;;
46230;SDS011;31949;51.404;-0.038;2023-06-10T08:43:59;18.65;;;11.98;;
46230;SDS011;31949;51.404;-0.038;2023-06-10T08:49:05;12.68;;;10.10;;
46230;SDS011;31949;51.404;-0.038;2023-06-10T08:51:36;16.52;;;11.52;;
46230;SDS011;31949;51.404;-0.038;2023-06-10T08:54:05;19.10;;;10.02;;
46230;SDS011;31949;51.404;-0.038;2023-06-10T08:56:39;14.63;;;10.52;;
46230;SDS011;31949;51.404;-0.038;2023-06-10T08:59:08;13.15;;;9.18;;
46230;SDS011;31949;51.404;-0.038;2023-06-10T09:01:36;15.70;;;10.20;;
46230;SDS011;31949;51.404;-0.038;2023-06-10T09:04:04;12.93;;;9.48;;
46230;SDS011;31949;51.404;-0.038;2023-06-10T09:06:32;16.60;;;10.18;;
46230;SDS011;31949;51.404;-0.038;2023-06-10T09:09:00;13.55;;;10.32;;
46230;SDS011;31949;51.404;-0.038;2023-06-10T09:11:29;14.35;;;9.57;;
46230;SDS011;31949;51.404;-0.038;2023-06-10T09:13:58;12.13;;;9.05;;
46230;SDS011;31949;51.404;-0.038;2023-06-10T09:16:25;13.95;;;9.48;;
46230;SDS011;31949;51.404;-0.038;2023-06-10T09:18:53;12.25;;;9.63;;
46230;SDS011;31949;51.404;-0.038;2023-06-10T09:21:25;13.25;;;9.27;;
46230;SDS011;31949;51.404;-0.038;2023-06-10T09:23:52;13.15;;;9.80;;
46230;SDS011;31949;51.404;-0.038;2023-06-10T09:26:20;12.60;;;10.02;;
46230;SDS011;31949;51.404;-0.038;2023-06-10T09:29:04;11.55;;;10.10;;
46230;SDS011;31949;51.404;-0.038;2023-06-10T09:31:34;16.90;;;10.98;;
46230;SDS011;31949;51.404;-0.038;2023-06-10T09:34:09;16.08;;;10.63;;
46230;SDS011;31949;51.404;-0.038;2023-06-10T09:36:40;13.77;;;11.85;;
46230;SDS011;31949;51.404;-0.038;2023-06-10T09:39:15;14.80;;;11.20;;
46230;SDS011;31949;51.404;-0.038;2023-06-10T09:41:43;15.48;;;10.80;;
46230;SDS011;31949;51.404;-0.038;2023-06-10T09:44:16;15.95;;;10.23;;
46230;SDS011;31949;51.404;-0.038;2023-06-10T09:46:45;14.88;;;10.50;;
46230;SDS011;31949;51.404;-0.038;2023-06-10T09:49:13;11.85;;;9.45;;
46230;SDS011;31949;51.404;-0.038;2023-06-10T09:51:50;14.48;;;10.98;;
46230;SDS011;31949;51.404;-0.038;2023-06-10T09:54:19;10.57;;;9.35;;
46230;SDS011;31949;51.404;-0.038;2023-06-10T09:56:47;11.45;;;9.32;;
46230;SDS011;31949;51.404;-0.038;2023-06-10T09:59:15;10.88;;;8.50;;
46230;SDS011;31949;51.404;-0.038;2023-06-10T10:01:42;10.32;;;7.43;;
46230;SDS011;31949;51.404;-0.038;2023-06-10T10:04:10;14.77;;;10.35;;
46230;SDS011;31949;51.404;-0.038;2023-06-10T10:06:37;9.95;;;8.48;;
46230;SDS011;31949;51.404;-0.038;2023-06-10T10:09:05;11.55;;;9.13;;
46230;SDS011;31949;51.404;-0.038;2023-06-10T10:11:33;12.13;;;9.60;;
46230;SDS011;31949;51.404;-0.038;2023-06-10T10:14:02;9.65;;;8.65;;
46230;SDS011;31949;51.404;-0.038;2023-06-10T10:16:37;8.70;;;7.55;;
46230;SDS011;31949;51.404;-0.038;2023-06-10T10:19:09;7.35;;;6.53;;
46230;SDS011;31949;51.404;-0.038;2023-06-10T10:21:48;9.65;;;7.90;;
46230;SDS011;31949;51.404;-0.038;2023-06-10T10:25:02;11.18;;;8.45;;
46230;SDS011;31949;51.404;-0.038;2023-06-10T10:27:21;15.27;;;8.50;;
46230;SDS011;31949;51.404;-0.038;2023-06-10T10:30:33;12.63;;;9.18;;
46230;SDS011;31949;51.404;-0.038;2023-06-10T10:33:05;9.07;;;8.05;;
46230;SDS011;31949;51.404;-0.038;2023-06-10T10:35:36;10.35;;;9.27;;
46230;SDS011;31949;51.404;-0.038;2023-06-10T10:38:04;9.20;;;7.95;;
46230;SDS011;31949;51.404;-0.038;2023-06-10T10:40:32;8.68;;;7.78;;
46230;SDS011;31949;51.404;-0.038;2023-06-10T10:43:00;9.77;;;7.72;;
46230;SDS011;31949;51.404;-0.038;2023-06-10T10:45:29;10.55;;;8.38;;
46230;SDS011;31949;51.404;-0.038;2023-06-10T10:47:56;10.30;;;7.50;;
46230;SDS011;31949;51.404;-0.038;2023-06-10T10:50:24;9.80;;;7.80;;
46230;SDS011;31949;51.404;-0.038;2023-06-10T10:53:01;12.45;;;8.10;;
46230;SDS011;31949;51.404;-0.038;2023-06-10T10:55:30;8.57;;;7.68;;
46230;SDS011;31949;51.404;-0.038;2023-06-10T10:57:59;7.43;;;6.60;;
46230;SDS011;31949;51.404;-0.038;2023-06-10T11:00:31;8.73;;;7.90;;
46230;SDS011;31949;51.404;-0.038;2023-06-10T11:03:00;12.90;;;6.90;;
46230;SDS011;31949;51.404;-0.038;2023-06-10T11:05:38;9.13;;;8.13;;
46230;SDS011;31949;51.404;-0.038;2023-06-10T11:08:45;9.05;;;6.80;;
46230;SDS011;31949;51.404;-0.038;2023-06-10T11:11:18;8.73;;;7.47;;
46230;SDS011;31949;51.404;-0.038;2023-06-10T11:14:06;10.43;;;7.15;;
46230;SDS011;31949;51.404;-0.038;2023-06-10T11:16:39;9.55;;;8.63;;
46230;SDS011;31949;51.404;-0.038;2023-06-10T11:19:08;8.98;;;7.20;;
46230;SDS011;31949;51.404;-0.038;2023-06-10T11:21:57;9.30;;;7.20;;
46230;SDS011;31949;51.404;-0.038;2023-06-10T11:24:26;11.00;;;8.05;;
46230;SDS011;31949;51.404;-0.038;2023-06-10T11:26:54;11.60;;;7.78;;
46230;SDS011;31949;51.404;-0.038;2023-06-10T11:29:54;11.88;;;9.32;;
46230;SDS011;31949;51.404;-0.038;2023-06-10T11:32:30;14.35;;;8.75;;
46230;SDS011;31949;51.404;-0.038;2023-06-10T11:34:59;8.18;;;7.38;;
46230;SDS011;31949;51.404;-0.038;2023-06-10T11:37:26;9.82;;;7.97;;
46230;SDS011;31949;51.404;-0.038;2023-06-10T11:39:54;7.60;;;6.82;;
46230;SDS011;31949;51.404;-0.038;2023-06-10T11:42:22;11.15;;;7.68;;
46230;SDS011;31949;51.404;-0.038;2023-06-10T11:44:53;8.80;;;8.07;;
46230;SDS011;31949;51.404;-0.038;2023-06-10T11:47:20;14.88;;;8.07;;
46230;SDS011;31949;51.404;-0.038;2023-06-10T11:49:55;11.30;;;9.55;;
46230;SDS011;31949;51.404;-0.038;2023-06-10T11:52:27;9.95;;;7.80;;
46230;SDS011;31949;51.404;-0.038;2023-06-10T11:55:04;8.50;;;7.70;;
46230;SDS011;31949;51.404;-0.038;2023-06-10T11:57:36;9.95;;;8.50;;
46230;SDS011;31949;51.404;-0.038;2023-06-10T12:00:04;10.13;;;8.05;;
46230;SDS011;31949;51.404;-0.038;2023-06-10T12:02:37;8.50;;;7.70;;
46230;SDS011;31949;51.404;-0.038;2023-06-10T12:05:13;10.85;;;8.73;;
46230;SDS011;31949;51.404;-0.038;2023-06-10T12:07:41;10.55;;;7.90;;
46230;SDS011;31949;51.404;-0.038;2023-06-10T12:10:08;8.32;;;7.53;;
46230;SDS011;31949;51.404;-0.038;2023-06-10T12:12:52;9.57;;;7.35;;
46230;SDS011;31949;51.404;-0.038;2023-06-10T12:15:23;11.38;;;7.80;;
46230;SDS011;31949;51.404;-0.038;2023-06-10T12:17:52;8.48;;;7.57;;
46230;SDS011;31949;51.404;-0.038;2023-06-10T12:20:26;9.38;;;8.30;;
46230;SDS011;31949;51.404;-0.038;2023-06-10T12:22:55;9.25;;;8.35;;
46230;SDS011;31949;51.404;-0.038;2023-06-10T12:25:26;12.57;;;8.27;;
46230;SDS011;31949;51.404;-0.038;2023-06-10T12:30:23;7.68;;;6.97;;
46230;SDS011;31949;51.404;-0.038;2023-06-10T12:32:51;14.10;;;8.93;;
46230;SDS011;31949;51.404;-0.038;2023-06-10T12:35:20;10.05;;;7.88;;
46230;SDS011;31949;51.404;-0.038;2023-06-10T12:37:58;9.98;;;8.25;;
46230;SDS011;31949;51.404;-0.038;2023-06-10T12:40:30;9.38;;;8.48;;
46230;SDS011;31949;51.404;-0.038;2023-06-10T12:42:58;9.10;;;8.10;;
46230;SDS011;31949;51.404;-0.038;2023-06-10T12:45:36;10.63;;;8.85;;
46230;SDS011;31949;51.404;-0.038;2023-06-10T12:50:41;8.68;;;7.43;;
46230;SDS011;31949;51.404;-0.038;2023-06-10T12:53:09;8.65;;;7.85;;
46230;SDS011;31949;51.404;-0.038;2023-06-10T12:55:40;8.20;;;7.40;;
46230;SDS011;31949;51.404;-0.038;2023-06-10T12:58:07;7.85;;;7.00;;
46230;SDS011;31949;51.404;-0.038;2023-06-10T13:00:34;12.52;;;8.10;;
46230;SDS011;31949;51.404;-0.038;2023-06-10T13:03:02;8.60;;;7.55;;
46230;SDS011;31949;51.404;-0.038;2023-06-10T13:05:32;7.78;;;7.00;;
46230;SDS011;31949;51.404;-0.038;2023-06-10T13:08:00;7.97;;;7.30;;
46230;SDS011;31949;51.404;-0.038;2023-06-10T13:10:27;7.90;;;7.20;;
46230;SDS011;31949;51.404;-0.038;2023-06-10T13:12:54;8.00;;;7.25;;
46230;SDS011;31949;51.404;-0.038;2023-06-10T13:15:22;6.97;;;5.88;;
46230;SDS011;31949;51.404;-0.038;2023-06-10T13:17:49;7.60;;;5.53;;
46230;SDS011;31949;51.404;-0.038;2023-06-10T13:20:18;7.63;;;6.25;;
46230;SDS011;31949;51.404;-0.038;2023-06-10T13:22:46;8.35;;;6.60;;
46230;SDS011;31949;51.404;-0.038;2023-06-10T13:25:14;7.97;;;7.18;;
46230;SDS011;31949;51.404;-0.038;2023-06-10T13:27:42;8.30;;;7.38;;
46230;SDS011;31949;51.404;-0.038;2023-06-10T13:30:09;7.60;;;6.82;;
46230;SDS011;31949;51.404;-0.038;2023-06-10T13:32:38;9.18;;;7.50;;
46230;SDS011;31949;51.404;-0.038;2023-06-10T13:35:05;8.77;;;7.15;;
46230;SDS011;31949;51.404;-0.038;2023-06-10T13:37:35;7.50;;;6.90;;
46230;SDS011;31949;51.404;-0.038;2023-06-10T13:40:02;9.20;;;7.90;;
46230;SDS011;31949;51.404;-0.038;2023-06-10T13:42:31;7.72;;;7.05;;
46230;SDS011;31949;51.404;-0.038;2023-06-10T13:44:58;9.05;;;8.23;;
46230;SDS011;31949;51.404;-0.038;2023-06-10T13:47:25;10.85;;;8.73;;
46230;SDS011;31949;51.404;-0.038;2023-06-10T13:49:53;9.65;;;8.75;;
46230;SDS011;31949;51.404;-0.038;2023-06-10T13:52:20;11.50;;;8.90;;
46230;SDS011;31949;51.404;-0.038;2023-06-10T13:54:47;10.15;;;9.15;;
46230;SDS011;31949;51.404;-0.038;2023-06-10T13:57:15;12.50;;;8.50;;
46230;SDS011;31949;51.404;-0.038;2023-06-10T13:59:42;9.80;;;8.85;;
46230;SDS011;31949;51.404;-0.038;2023-06-10T14:02:10;10.95;;;9.70;;
46230;SDS011;31949;51.404;-0.038;2023-06-10T14:04:37;11.32;;;10.05;;
46230;SDS011;31949;51.404;-0.038;2023-06-10T14:07:05;9.88;;;8.95;;
46230;SDS011;31949;51.404;-0.038;2023-06-10T14:09:32;9.43;;;8.68;;
46230;SDS011;31949;51.404;-0.038;2023-06-10T14:11:59;10.05;;;9.15;;
46230;SDS011;31949;51.404;-0.038;2023-06-10T14:14:26;10.82;;;9.93;;
46230;SDS011;31949;51.404;-0.038;2023-06-10T14:16:54;10.48;;;9.18;;
46230;SDS011;31949;51.404;-0.038;2023-06-10T14:19:21;11.15;;;10.07;;
46230;SDS011;31949;51.404;-0.038;2023-06-10T14:21:48;11.60;;;10.40;;
46230;SDS011;31949;51.404;-0.038;2023-06-10T14:24:16;10.20;;;9.10;;
46230;SDS011;31949;51.404;-0.038;2023-06-10T14:26:43;11.20;;;9.57;;
46230;SDS011;31949;51.404;-0.038;2023-06-10T14:29:10;10.95;;;9.98;;
46230;SDS011;31949;51.404;-0.038;2023-06-10T14:31:41;14.10;;;10.63;;
46230;SDS011;31949;51.404;-0.038;2023-06-10T14:34:08;12.02;;;10.32;;
46230;SDS011;31949;51.404;-0.038;2023-06-10T14:36:35;11.65;;;10.30;;
46230;SDS011;31949;51.404;-0.038;2023-06-10T14:39:03;14.95;;;11.70;;
46230;SDS011;31949;51.404;-0.038;2023-06-10T14:41:31;10.90;;;9.80;;
46230;SDS011;31949;51.404;-0.038;2023-06-10T14:43:58;12.27;;;11.07;;
46230;SDS011;31949;51.404;-0.038;2023-06-10T14:46:25;12.00;;;10.65;;
46230;SDS011;31949;51.404;-0.038;2023-06-10T14:48:52;10.88;;;9.95;;
46230;SDS011;31949;51.404;-0.038;2023-06-10T14:51:20;13.40;;;10.52;;
46230;SDS011;31949;51.404;-0.038;2023-06-10T14:53:47;11.05;;;9.95;;